createdAt,value
2023-02-01T00:02:59.143Z,57.88
2023-02-01T00:08:02.788Z,57.40
2023-02-01T00:13:13.249Z,57.76
2023-02-01T00:18:24.684Z,57.87
2023-02-01T00:23:29.980Z,57.77
2023-02-01T00:28:42.695Z,57.38
2023-02-01T00:33:53.125Z,57.92
2023-02-01T00:38:59.367Z,57.87
2023-02-01T00:44:06.114Z,57.32
2023-02-01T00:49:09.976Z,57.78
2023-02-01T00:54:16.209Z,57.98
2023-02-01T00:59:22.096Z,57.77
2023-02-01T01:04:26.045Z,57.71
2023-02-01T01:09:27.590Z,58.05
2023-02-01T01:14:31.378Z,58.34
2023-02-01T01:19:32.969Z,57.83
2023-02-01T01:24:36.897Z,58.02
2023-02-01T01:29:44.091Z,58.17
2023-02-01T01:34:45.831Z,57.99
2023-02-01T01:39:47.500Z,58.32
2023-02-01T01:45:04.526Z,57.49
2023-02-01T01:50:25.389Z,57.99
2023-02-01T01:55:32.611Z,58.59
2023-02-01T02:00:36.727Z,58.09
2023-02-01T02:05:46.061Z,58.30
2023-02-01T02:11:01.952Z,58.00
2023-02-01T02:16:19.874Z,58.33
2023-02-01T02:21:52.454Z,58.18
2023-02-01T02:27:30.058Z,57.91
2023-02-01T02:33:01.788Z,58.22
2023-02-01T02:38:19.306Z,58.07
2023-02-01T02:43:53.584Z,57.92
2023-02-01T02:49:19.579Z,58.02
2023-02-01T02:54:45.895Z,58.31
2023-02-01T03:00:10.690Z,58.41
2023-02-01T03:10:41.568Z,58.52
2023-02-01T03:15:57.377Z,58.22
2023-02-01T03:21:10.723Z,58.42
2023-02-01T03:26:20.514Z,58.16
2023-02-01T03:31:24.146Z,57.89
2023-02-01T03:36:41.580Z,58.11
2023-02-01T03:41:56.315Z,58.24
2023-02-01T03:47:13.367Z,58.48
2023-02-01T03:52:29.641Z,58.22
2023-02-01T03:57:38.914Z,58.15
2023-02-01T04:02:43.516Z,57.85
2023-02-01T04:07:46.638Z,58.26
2023-02-01T04:13:00.977Z,57.83
2023-02-01T04:18:04.699Z,58.07
2023-02-01T04:23:10.984Z,57.88
2023-02-01T04:28:24.579Z,58.04
2023-02-01T04:33:30.263Z,57.75
2023-02-01T04:38:38.998Z,57.69
2023-02-01T04:43:40.531Z,57.91
2023-02-01T04:48:45.405Z,58.12
2023-02-01T04:53:52.993Z,57.75
2023-02-01T04:58:54.683Z,57.76
2023-02-01T05:04:00.931Z,57.91
2023-02-01T05:09:12.956Z,57.66
2023-02-01T05:14:17.680Z,57.42
2023-02-01T05:19:21.211Z,57.48
2023-02-01T05:24:24.513Z,57.64
2023-02-01T05:29:28.355Z,57.57
2023-02-01T05:34:34.459Z,57.53
2023-02-01T05:39:41.979Z,57.92
2023-02-01T05:44:50.555Z,57.87
2023-02-01T05:49:54.416Z,57.44
2023-02-01T05:54:58.507Z,57.55
2023-02-01T06:00:04.182Z,57.21
2023-02-01T06:05:16.095Z,58.04
2023-02-01T06:10:19.371Z,57.51
2023-02-01T06:15:23.001Z,57.75
2023-02-01T06:20:25.237Z,57.96
2023-02-01T06:25:31.603Z,57.57
2023-02-01T06:30:35.704Z,58.10
2023-02-01T06:35:50.625Z,58.29
2023-02-01T06:40:58.795Z,58.23
2023-02-01T06:46:16.495Z,58.13
2023-02-01T06:51:31.336Z,58.92
2023-02-01T06:56:33.663Z,58.62
2023-02-01T07:01:40.084Z,58.49
2023-02-01T07:06:43.904Z,58.43
2023-02-01T07:11:48.003Z,59.10
2023-02-01T07:16:52.082Z,58.43
2023-02-01T07:21:53.621Z,58.48
2023-02-01T07:26:59.447Z,58.21
2023-02-01T07:32:06.390Z,58.75
2023-02-01T07:37:10.201Z,58.39
2023-02-01T07:42:16.696Z,58.49
2023-02-01T07:47:22.391Z,58.58
2023-02-01T07:52:29.575Z,58.43
2023-02-01T07:57:31.048Z,58.55
2023-02-01T08:02:38.223Z,58.35
2023-02-01T08:07:40.401Z,58.53
2023-02-01T08:12:52.793Z,58.91
2023-02-01T08:17:58.349Z,58.54
2023-02-01T08:23:03.700Z,58.98
2023-02-01T08:28:12.193Z,58.75
2023-02-01T08:33:13.771Z,59.01
2023-02-01T08:38:17.599Z,58.82
2023-02-01T08:43:24.628Z,58.78
2023-02-01T08:48:28.534Z,59.06
2023-02-01T08:53:35.578Z,59.20
2023-02-01T08:58:39.878Z,58.78
2023-02-01T09:03:44.353Z,58.86
2023-02-01T09:08:48.403Z,58.80
2023-02-01T09:13:52.991Z,58.87
2023-02-01T09:19:14.854Z,58.79
2023-02-01T09:24:23.567Z,59.15
2023-02-01T09:29:25.094Z,59.23
2023-02-01T09:34:40.421Z,59.21
2023-02-01T09:39:44.423Z,58.87
2023-02-01T09:45:19.029Z,59.37
2023-02-01T09:50:50.723Z,58.53
2023-02-01T09:56:01.379Z,59.02
2023-02-01T10:01:04.457Z,59.56
2023-02-01T10:06:20.704Z,59.12
2023-02-01T10:11:53.988Z,58.97
2023-02-01T10:17:13.457Z,58.60
2023-02-01T10:23:00.005Z,59.37
2023-02-01T10:28:07.106Z,58.87
2023-02-01T10:33:22.056Z,59.32
2023-02-01T10:38:30.026Z,59.17
2023-02-01T10:43:32.399Z,59.42
2023-02-01T10:48:37.498Z,59.09
2023-02-01T10:53:44.296Z,58.64
2023-02-01T10:58:49.037Z,58.27
2023-02-01T11:04:09.593Z,58.51
2023-02-01T11:09:15.983Z,58.19
2023-02-01T11:14:29.419Z,58.57
2023-02-01T11:19:40.024Z,58.90
2023-02-01T11:24:47.131Z,59.02
2023-02-01T11:29:54.602Z,59.11
2023-02-01T11:35:08.164Z,58.19
2023-02-01T11:40:22.749Z,57.84
2023-02-01T11:45:30.591Z,58.43
2023-02-01T11:50:54.788Z,57.69
2023-02-01T11:56:22.553Z,57.42
2023-02-01T12:01:40.592Z,57.10
2023-02-01T12:06:52.316Z,57.39
2023-02-01T12:12:16.784Z,56.53
2023-02-01T12:17:54.660Z,56.25
2023-02-01T12:23:20.641Z,56.51
2023-02-01T12:28:54.316Z,55.76
2023-02-01T12:33:58.758Z,56.26
2023-02-01T12:39:13.056Z,56.45
2023-02-01T12:44:45.419Z,55.97
2023-02-01T12:50:01.760Z,56.61
2023-02-01T12:55:25.977Z,56.29
2023-02-01T13:00:30.685Z,56.97
2023-02-01T13:05:55.961Z,56.71
2023-02-01T13:11:15.961Z,57.39
2023-02-01T13:16:42.244Z,57.38
2023-02-01T13:21:57.082Z,56.88
2023-02-01T13:27:01.800Z,57.15
2023-02-01T13:32:18.269Z,56.77
2023-02-01T13:37:40.474Z,56.48
2023-02-01T13:42:53.852Z,57.13
2023-02-01T13:48:02.667Z,56.69
2023-02-01T13:53:17.910Z,56.90
2023-02-01T13:58:36.971Z,56.72
2023-02-01T14:03:58.972Z,56.67
2023-02-01T14:09:15.181Z,56.53
2023-02-01T14:14:18.087Z,56.16
2023-02-01T14:19:31.669Z,55.69
2023-02-01T14:24:35.917Z,55.71
2023-02-01T14:29:43.376Z,55.54
2023-02-01T14:34:47.996Z,55.32
2023-02-01T14:40:09.080Z,54.92
2023-02-01T14:45:25.949Z,54.61
2023-02-01T14:50:44.310Z,54.90
2023-02-01T14:56:14.257Z,54.69
2023-02-01T15:01:34.654Z,54.63
2023-02-01T15:06:41.519Z,55.09
2023-02-01T15:12:24.734Z,54.94
2023-02-01T15:17:35.221Z,54.95
2023-02-01T15:22:44.136Z,54.67
2023-02-01T15:27:51.546Z,54.51
2023-02-01T15:33:21.684Z,55.07
2023-02-01T15:38:32.907Z,54.42
2023-02-01T15:43:38.381Z,54.76
2023-02-01T15:48:57.415Z,54.69
2023-02-01T15:54:20.459Z,54.49
2023-02-01T15:59:31.670Z,54.58
2023-02-01T16:04:34.951Z,54.53
2023-02-01T16:09:54.269Z,54.34
2023-02-01T16:14:55.753Z,54.24
2023-02-01T16:20:02.233Z,54.02
2023-02-01T16:25:04.170Z,54.26
2023-02-01T16:30:09.900Z,53.90
2023-02-01T16:35:22.188Z,53.68
2023-02-01T16:40:26.269Z,53.56
2023-02-01T16:45:37.951Z,53.39
2023-02-01T16:50:48.313Z,53.66
2023-02-01T16:55:50.439Z,53.46
2023-02-01T17:00:56.664Z,53.37
2023-02-01T17:05:58.699Z,53.01
2023-02-01T17:11:02.607Z,52.80
2023-02-01T17:16:22.460Z,53.64
2023-02-01T17:21:33.032Z,53.26
2023-02-01T17:26:39.635Z,53.14
2023-02-01T17:31:49.712Z,53.19
2023-02-01T17:36:53.922Z,53.40
2023-02-01T17:41:55.401Z,53.55
2023-02-01T17:46:59.901Z,53.34
2023-02-01T17:52:10.551Z,53.09
2023-02-01T17:57:14.595Z,53.54
2023-02-01T18:02:21.614Z,53.10
2023-02-01T18:07:30.030Z,52.86
2023-02-01T18:12:37.169Z,53.28
2023-02-01T18:17:40.701Z,53.07
2023-02-01T18:22:52.467Z,53.46
2023-02-01T18:27:58.522Z,53.20
2023-02-01T18:33:02.685Z,52.98
2023-02-01T18:38:11.520Z,53.24
2023-02-01T18:43:23.081Z,53.01
2023-02-01T18:48:51.382Z,52.91
2023-02-01T18:54:00.851Z,52.97
2023-02-01T18:59:05.253Z,53.27
2023-02-01T19:04:20.759Z,53.49
2023-02-01T19:09:35.255Z,52.68
2023-02-01T19:14:44.564Z,53.11
2023-02-01T19:20:01.580Z,53.30
2023-02-01T19:25:07.209Z,53.23
2023-02-01T19:30:17.716Z,52.96
2023-02-01T19:35:23.983Z,53.27
2023-02-01T19:40:35.370Z,52.65
2023-02-01T19:45:40.834Z,53.01
2023-02-01T19:50:42.367Z,52.95
2023-02-01T19:55:45.702Z,52.95
2023-02-01T20:01:00.023Z,52.79
2023-02-01T20:06:02.156Z,52.98
2023-02-01T20:11:15.843Z,53.11
2023-02-01T20:16:21.104Z,53.07
2023-02-01T20:21:25.389Z,52.51
2023-02-01T20:26:30.079Z,52.42
2023-02-01T20:31:34.102Z,52.77
2023-02-01T20:36:35.753Z,52.70
2023-02-01T20:41:44.787Z,52.78
2023-02-01T20:46:56.054Z,52.96
2023-02-01T20:52:03.080Z,52.40
2023-02-01T20:57:25.041Z,52.79
2023-02-01T21:02:26.896Z,52.42
2023-02-01T21:07:37.068Z,52.47
2023-02-01T21:12:41.183Z,53.37
2023-02-01T21:17:48.376Z,53.17
2023-02-01T21:22:51.775Z,53.12
2023-02-01T21:27:58.927Z,53.13
2023-02-01T21:33:02.870Z,53.28
2023-02-01T21:38:16.115Z,53.14
2023-02-01T21:43:29.056Z,52.97
2023-02-01T21:49:03.904Z,53.31
2023-02-01T21:53:56.889Z,54.01
2023-02-01T21:59:00.913Z,54.02
2023-02-01T22:04:07.573Z,54.37
2023-02-01T22:09:18.808Z,54.39
2023-02-01T22:14:25.404Z,54.34
2023-02-01T22:19:33.950Z,54.59
2023-02-01T22:24:46.619Z,54.81
2023-02-01T22:29:53.038Z,54.69
2023-02-01T22:34:57.582Z,54.62
2023-02-01T22:40:09.080Z,54.49
2023-02-01T22:45:15.471Z,54.92
2023-02-01T22:50:17.397Z,54.77
2023-02-01T22:55:21.490Z,54.68
2023-02-01T23:00:27.761Z,54.70
2023-02-01T23:05:29.424Z,55.07
2023-02-01T23:10:32.723Z,54.85
2023-02-01T23:15:34.364Z,54.85
2023-02-01T23:20:37.538Z,54.51
2023-02-01T23:25:51.716Z,54.62
2023-02-01T23:31:06.630Z,54.88
2023-02-01T23:36:12.023Z,54.60
2023-02-01T23:41:20.702Z,54.93
2023-02-01T23:46:51.459Z,54.68
2023-02-01T23:51:53.452Z,55.02
2023-02-01T23:57:03.768Z,55.03
